Airport details for: LPFR (Portugal)

Metar

LPFR 270100Z 32010KT CAVOK 14/07 Q1011

General details

ICAO: LPFR
IATA: FAO
Name (city): Faro
Major:
Country: Portugal
vACC: vACC Portugal
Description:

Faro Airport is located 4 km to the west of Faro, Portugal. The airport gets very busy during the summer months, namely from March to October, to the extent that the airport becomes a slot coordinated airport. There are 22 stands of which 16 are remote, with 60 check-in desks and 36 boarding gates A total of 5.6 million passengers used Faro airport in 2011. The airport became a hub for the first time in March 2010, when Ryanair decided to base seven of its aircraft there.

Scenery links:
FS9 scenery: Download
FSX/P3D scenery: Download
XP scenery: Download
Elevation: 24 ft.
Transition altitude: 4000 ft.
MSA: 8100 ft.
Latitude: 37.014444
Longitude: -7.965834
LPFR Charts
LPFR Notams
LPFR Online stations

Runways

Number Course Length Elevation Lat Lon ILS ILS freq ILS FAC GP
10 104° 8169ft / 2490 m 24ft 37.017222 -7.985614 - - 3.0°
28 284° 8169ft / 2490 m 18ft 37.01345 -7.959042 109.5 284° 3.0°